Time;durP1;ratioP1;P1;durP2;ratioP2;P2;SDS_P1;SDS_P2;PMS_P1;PMS_P2;Temp;Humidity;BMP_temperature;BMP_pressure;BME280_temperature;BME280_humidity;BME280_pressure;Samples;Min_cycle;Max_cycle;Signal;HPM_P1;HPM_P2
2023/11/09 00:00:21;;;;;;;119.73;109.50;;;10.20;99.90;;;;;;5040451;28;20190;-80
2023/11/09 00:02:46;;;;;;;113.40;103.77;;;10.20;99.90;;;;;;5044444;28;20905;-80
2023/11/09 00:05:12;;;;;;;139.30;128.77;;;10.20;99.90;;;;;;5025287;28;20646;-80
2023/11/09 00:07:39;;;;;;;121.50;111.55;;;10.10;99.90;;;;;;5042146;28;20193;-81
2023/11/09 00:10:06;;;;;;;110.22;100.57;;;10.10;99.90;;;;;;5021600;28;20224;-81
2023/11/09 00:12:32;;;;;;;113.43;103.78;;;10.20;99.90;;;;;;5038806;28;20166;-81
2023/11/09 00:14:59;;;;;;;99.05;89.80;;;10.20;99.90;;;;;;5037903;28;20166;-81
2023/11/09 00:17:24;;;;;;;114.90;104.80;;;10.20;99.90;;;;;;5020319;28;20608;-81
2023/11/09 00:19:51;;;;;;;132.47;121.67;;;10.20;99.90;;;;;;5019948;28;20201;-81
2023/11/09 00:22:17;;;;;;;117.28;107.15;;;10.10;99.90;;;;;;5022884;28;20174;-81
2023/11/09 00:24:43;;;;;;;123.18;112.55;;;10.20;99.90;;;;;;5040517;28;20178;-81
2023/11/09 00:27:20;;;;;;;125.50;115.53;;;10.20;99.90;;;;;;5041664;28;20227;-81
2023/11/09 00:29:46;;;;;;;125.28;114.78;;;10.20;99.90;;;;;;5040794;28;20165;-81
2023/11/09 00:32:12;;;;;;;108.77;99.10;;;10.10;99.90;;;;;;5023376;28;20162;-81
2023/11/09 00:34:38;;;;;;;100.80;91.55;;;10.20;99.90;;;;;;5041951;28;20420;-82
2023/11/09 00:37:04;;;;;;;117.82;107.18;;;10.20;99.90;;;;;;5041509;28;20216;-82
2023/11/09 00:39:31;;;;;;;114.53;104.80;;;10.20;99.90;;;;;;5042160;28;20170;-82
2023/11/09 00:41:56;;;;;;;108.60;99.13;;;10.20;99.90;;;;;;5041614;28;20190;-82
2023/11/09 00:44:22;;;;;;;114.13;104.43;;;10.20;99.90;;;;;;5041546;28;20798;-82
2023/11/09 00:46:48;;;;;;;113.40;103.83;;;10.30;99.90;;;;;;5042182;28;20397;-82
2023/11/09 00:49:14;;;;;;;103.33;94.03;;;10.30;99.90;;;;;;5042158;28;20218;-82
2023/11/09 00:51:39;;;;;;;117.20;107.47;;;10.30;99.90;;;;;;5042439;28;20224;-82
2023/11/09 00:54:05;;;;;;;109.23;99.73;;;10.30;99.90;;;;;;5022409;28;20252;-81
2023/11/09 00:56:31;;;;;;;103.37;94.07;;;10.30;99.90;;;;;;5021623;28;20185;-81
2023/11/09 00:58:56;;;;;;;116.60;106.87;;;10.30;99.90;;;;;;5038406;28;20408;-80
2023/11/09 01:01:22;;;;;;;97.47;88.33;;;10.20;99.90;;;;;;5038548;28;20193;-80
2023/11/09 01:03:48;;;;;;;118.67;108.37;;;10.20;99.90;;;;;;5038335;28;20185;-80
2023/11/09 01:06:15;;;;;;;117.90;107.80;;;10.20;99.90;;;;;;5022050;28;20224;-80
2023/11/09 01:08:41;;;;;;;103.00;93.78;;;10.30;99.90;;;;;;5038707;28;20701;-80
2023/11/09 01:11:07;;;;;;;108.75;98.63;;;10.30;99.90;;;;;;5038316;28;20197;-80
2023/11/09 01:13:36;;;;;;;111.23;101.70;;;10.30;99.90;;;;;;5038426;28;20209;-80
2023/11/09 01:16:02;;;;;;;115.70;105.50;;;10.30;99.90;;;;;;5020795;28;20181;-80
2023/11/09 01:18:32;;;;;;;115.38;105.65;;;10.30;99.90;;;;;;5020299;28;20265;-80
2023/11/09 01:20:57;;;;;;;99.15;89.97;;;10.40;99.90;;;;;;5020644;28;20197;-80
2023/11/09 01:23:27;;;;;;;178.93;166.60;;;10.30;99.90;;;;;;5020437;28;20217;-78
2023/11/09 01:25:53;;;;;;;110.90;100.55;;;10.20;99.90;;;;;;5037763;28;20155;-80
2023/11/09 01:28:18;;;;;;;104.00;94.63;;;10.20;99.90;;;;;;5038562;28;20162;-80
2023/11/09 01:30:46;;;;;;;120.73;110.53;;;10.20;99.90;;;;;;5038583;28;20216;-80
2023/11/09 01:33:12;;;;;;;105.82;96.35;;;10.30;99.90;;;;;;5023490;28;20193;-81
2023/11/09 01:35:37;;;;;;;123.23;112.83;;;10.30;99.90;;;;;;5039110;28;20639;-81
2023/11/09 01:38:03;;;;;;;114.47;104.80;;;10.20;99.90;;;;;;5038899;28;20186;-81
2023/11/09 01:40:30;;;;;;;116.53;106.73;;;10.20;99.90;;;;;;5023326;28;20456;-81
2023/11/09 01:42:55;;;;;;;116.50;106.75;;;10.20;99.90;;;;;;5085809;22;20351;-80
2023/11/09 01:45:21;;;;;;;106.30;96.93;;;10.30;99.90;;;;;;5043452;28;20608;-80
2023/11/09 01:47:47;;;;;;;120.00;109.63;;;10.40;99.90;;;;;;5042813;28;20166;-80
2023/11/09 01:50:16;;;;;;;110.17;100.63;;;10.40;99.90;;;;;;5043488;28;20672;-80
2023/11/09 01:52:42;;;;;;;112.15;102.35;;;10.40;99.90;;;;;;5025740;28;20440;-80
2023/11/09 01:55:09;;;;;;;107.25;97.45;;;10.30;99.90;;;;;;5043853;28;20180;-81
2023/11/09 01:57:35;;;;;;;121.97;111.25;;;10.20;99.90;;;;;;5026440;28;20177;-81
2023/11/09 02:00:03;;;;;;;115.70;105.72;;;10.20;99.90;;;;;;5044195;28;20162;-81
2023/11/09 02:02:30;;;;;;;113.05;103.32;;;10.10;99.90;;;;;;5044876;28;20185;-81
2023/11/09 02:04:56;;;;;;;130.90;120.13;;;10.10;99.90;;;;;;5044191;28;20182;-81
2023/11/09 02:07:22;;;;;;;127.90;117.45;;;10.10;99.90;;;;;;5045864;28;20165;-81
2023/11/09 02:09:51;;;;;;;150.30;138.97;;;10.10;99.90;;;;;;5046336;28;20250;-81
2023/11/09 02:12:17;;;;;;;130.95;120.05;;;10.10;99.90;;;;;;5047395;28;20397;-81
2023/11/09 02:14:43;;;;;;;130.13;119.43;;;10.20;99.90;;;;;;5046660;28;20182;-81
2023/11/09 02:17:11;;;;;;;103.50;93.93;;;10.20;99.90;;;;;;5046010;28;20236;-81
2023/11/09 02:19:37;;;;;;;128.90;118.18;;;10.20;99.90;;;;;;5027350;28;20169;-81
2023/11/09 02:22:04;;;;;;;111.40;101.80;;;10.20;99.90;;;;;;5042846;28;20576;-81
2023/11/09 02:24:30;;;;;;;116.07;106.15;;;10.20;99.90;;;;;;5041920;28;20433;-81
2023/11/09 02:26:56;;;;;;;114.05;104.28;;;10.30;99.90;;;;;;5042700;28;20158;-81
2023/11/09 02:29:22;;;;;;;128.00;117.50;;;10.30;99.90;;;;;;5026192;28;20173;-81
2023/11/09 02:31:48;;;;;;;134.82;124.35;;;10.20;99.90;;;;;;5026165;28;20170;-81
2023/11/09 02:34:18;;;;;;;145.27;134.27;;;10.20;99.90;;;;;;5043238;28;20205;-81
2023/11/09 02:36:44;;;;;;;160.75;149.20;;;10.20;99.90;;;;;;5043847;28;20145;-81
2023/11/09 02:39:12;;;;;;;154.27;142.87;;;10.20;99.90;;;;;;5024363;28;20176;-81
2023/11/09 02:41:38;;;;;;;146.40;135.40;;;10.20;99.90;;;;;;5041646;28;20186;-81
2023/11/09 02:44:04;;;;;;;132.60;121.88;;;10.20;99.90;;;;;;5042180;28;20204;-81
2023/11/09 02:46:30;;;;;;;132.90;121.95;;;10.20;99.90;;;;;;5042790;28;20172;-81
2023/11/09 02:48:57;;;;;;;108.30;98.80;;;10.20;99.90;;;;;;5024418;28;20170;-81
2023/11/09 02:51:23;;;;;;;109.88;100.28;;;10.20;99.90;;;;;;5041331;28;20439;-81
2023/11/09 02:53:57;;;;;;;119.45;109.25;;;10.10;99.90;;;;;;5041777;28;20196;-81
2023/11/09 02:56:23;;;;;;;122.93;112.85;;;10.10;99.90;;;;;;5042482;28;20229;-81
2023/11/09 02:58:49;;;;;;;123.67;113.57;;;10.10;99.90;;;;;;5042307;28;20572;-81
2023/11/09 03:01:17;;;;;;;122.57;112.60;;;10.10;99.90;;;;;;5023528;28;20570;-82
2023/11/09 03:03:43;;;;;;;110.95;101.38;;;10.10;99.90;;;;;;5025439;28;20186;-81
2023/11/09 03:06:09;;;;;;;129.70;118.90;;;10.10;99.90;;;;;;5030814;28;20162;-81
2023/11/09 03:08:35;;;;;;;116.60;106.80;;;10.10;99.90;;;;;;5045549;28;20186;-82
2023/11/09 03:11:00;;;;;;;112.30;102.70;;;10.10;99.90;;;;;;5045635;28;20170;-82
2023/11/09 03:13:27;;;;;;;125.97;115.63;;;10.10;99.90;;;;;;5045395;28;20209;-82
2023/11/09 03:15:52;;;;;;;135.95;125.15;;;10.10;99.90;;;;;;5045753;28;20601;-82
2023/11/09 03:18:19;;;;;;;118.17;108.10;;;10.10;99.90;;;;;;5028092;28;20257;-82
2023/11/09 03:20:45;;;;;;;125.03;114.85;;;10.10;99.90;;;;;;5044983;28;20197;-82
2023/11/09 03:23:10;;;;;;;119.23;109.23;;;10.10;99.90;;;;;;5027534;28;20217;-82
2023/11/09 03:25:38;;;;;;;104.10;94.80;;;10.10;99.90;;;;;;5046164;28;20177;-82
2023/11/09 03:28:05;;;;;;;120.70;110.57;;;10.20;99.90;;;;;;5045066;28;20162;-82
2023/11/09 03:30:30;;;;;;;120.38;110.28;;;10.20;99.90;;;;;;5027860;28;20177;-82
2023/11/09 03:32:57;;;;;;;111.60;102.07;;;10.10;99.90;;;;;;5027483;28;20567;-82
2023/11/09 03:35:23;;;;;;;106.97;97.60;;;10.20;99.90;;;;;;5045285;28;20408;-82
2023/11/09 03:37:49;;;;;;;120.18;109.80;;;10.20;99.90;;;;;;5027982;28;20180;-82
2023/11/09 03:40:14;;;;;;;108.20;98.70;;;10.20;99.90;;;;;;5027658;28;20220;-82
2023/11/09 03:42:40;;;;;;;106.47;97.07;;;10.20;99.90;;;;;;5045796;28;20162;-82
2023/11/09 03:45:08;;;;;;;109.43;99.97;;;10.10;99.90;;;;;;5044615;28;20647;-82
2023/11/09 03:47:33;;;;;;;111.60;102.05;;;10.10;99.90;;;;;;5028209;28;20166;-82
2023/11/09 03:49:59;;;;;;;118.00;108.20;;;10.20;99.90;;;;;;5044734;28;20201;-81
2023/11/09 03:52:27;;;;;;;119.50;109.20;;;10.20;99.90;;;;;;5024573;28;20166;-81
2023/11/09 03:54:54;;;;;;;97.65;88.55;;;10.20;99.90;;;;;;5024599;28;20193;-81
2023/11/09 03:57:19;;;;;;;117.72;107.93;;;10.20;99.90;;;;;;5043000;28;20177;-81
2023/11/09 03:59:45;;;;;;;115.43;105.33;;;10.20;99.90;;;;;;5023876;28;20166;-81
2023/11/09 04:02:11;;;;;;;106.73;97.43;;;10.20;99.90;;;;;;5042908;28;20193;-81
2023/11/09 04:04:36;;;;;;;102.30;93.13;;;10.30;99.90;;;;;;5042225;28;20184;-81
2023/11/09 04:07:02;;;;;;;103.17;93.27;;;10.20;99.90;;;;;;5025120;28;20162;-81
2023/11/09 04:09:29;;;;;;;103.17;93.87;;;10.20;99.90;;;;;;5024245;28;20578;-81
2023/11/09 04:11:55;;;;;;;105.72;96.28;;;10.30;99.90;;;;;;5042915;28;20170;-81
2023/11/09 04:14:20;;;;;;;100.55;91.20;;;10.30;99.90;;;;;;5024543;28;20190;-82
2023/11/09 04:16:46;;;;;;;110.10;100.10;;;10.20;99.90;;;;;;5042354;28;20170;-81
2023/11/09 04:19:12;;;;;;;110.23;100.63;;;10.20;99.90;;;;;;5043670;28;20162;-81
2023/11/09 04:21:38;;;;;;;120.03;109.70;;;10.30;99.90;;;;;;5044143;28;20231;-81
2023/11/09 04:24:05;;;;;;;109.33;99.80;;;10.20;99.90;;;;;;5028165;28;20424;-81
2023/11/09 04:26:32;;;;;;;107.70;98.07;;;10.30;99.90;;;;;;5047034;28;20162;-81
2023/11/09 04:28:59;;;;;;;118.28;108.53;;;10.30;99.90;;;;;;5028361;28;20170;-81
2023/11/09 04:31:26;;;;;;;112.03;102.45;;;10.30;99.90;;;;;;5029364;28;20196;-81
2023/11/09 04:34:01;;;;;;;114.05;103.82;;;10.30;99.90;;;;;;5046708;28;20192;-81
2023/11/09 04:36:27;;;;;;;116.13;106.43;;;10.30;99.90;;;;;;5049720;28;20157;-81
2023/11/09 04:38:53;;;;;;;104.40;95.10;;;10.30;99.90;;;;;;5050046;28;20252;-81
2023/11/09 04:41:20;;;;;;;103.70;94.37;;;10.20;99.90;;;;;;5049390;28;20201;-81
2023/11/09 04:43:46;;;;;;;102.07;92.82;;;10.30;99.90;;;;;;5048074;28;20686;-81
2023/11/09 04:46:17;;;;;;;116.03;106.10;;;10.40;99.90;;;;;;5047817;28;20174;-81
2023/11/09 04:48:47;;;;;;;114.15;104.55;;;10.30;99.90;;;;;;5029823;28;20396;-81
2023/11/09 04:51:30;;;;;;;109.70;100.05;;;10.30;99.90;;;;;;5030058;28;20685;-81
2023/11/09 04:54:06;;;;;;;126.28;115.72;;;10.30;99.90;;;;;;5048118;28;20536;-81
2023/11/09 04:56:42;;;;;;;107.13;97.80;;;10.20;99.90;;;;;;5030329;28;20157;-81
2023/11/09 05:07:27;;;;;;;111.53;102.05;;;10.20;99.90;;;;;;5042014;28;20570;-79
2023/11/09 05:09:54;;;;;;;108.28;98.82;;;10.20;99.90;;;;;;5025346;28;20230;-79
2023/11/09 05:12:20;;;;;;;107.15;97.53;;;10.20;99.90;;;;;;5042430;28;20162;-80
2023/11/09 05:14:45;;;;;;;101.43;92.20;;;10.20;99.90;;;;;;5023650;28;20182;-80
2023/11/09 05:17:14;;;;;;;106.97;97.17;;;10.20;99.90;;;;;;5040714;28;20409;-80
2023/11/09 05:19:41;;;;;;;101.70;92.43;;;10.20;99.90;;;;;;5041120;28;20532;-80
2023/11/09 05:22:10;;;;;;;120.88;110.65;;;10.20;99.90;;;;;;5040718;28;20185;-79
2023/11/09 05:24:42;;;;;;;106.55;97.22;;;10.20;99.90;;;;;;5020973;28;20186;-80
2023/11/09 05:27:08;;;;;;;114.38;104.45;;;10.20;99.90;;;;;;5039013;28;20158;-79
2023/11/09 05:29:34;;;;;;;111.72;102.07;;;10.10;99.90;;;;;;5038421;28;20173;-79
2023/11/09 05:32:06;;;;;;;94.13;85.18;;;10.10;99.90;;;;;;5038507;28;20230;-79
2023/11/09 05:34:35;;;;;;;121.82;111.72;;;10.00;99.90;;;;;;5037389;28;20185;-79
2023/11/09 05:37:04;;;;;;;111.43;101.88;;;10.00;99.90;;;;;;5039025;28;20189;-79
2023/11/09 05:39:30;;;;;;;118.32;108.28;;;10.00;99.90;;;;;;5039355;28;20166;-80
2023/11/09 05:41:56;;;;;;;120.20;110.00;;;9.90;99.90;;;;;;5039189;28;20722;-79
2023/11/09 05:44:23;;;;;;;118.93;109.03;;;9.90;99.90;;;;;;5020622;28;20198;-79
2023/11/09 05:46:49;;;;;;;140.43;129.65;;;9.90;99.90;;;;;;5038797;28;20213;-80
2023/11/09 05:49:17;;;;;;;118.25;108.28;;;9.80;99.90;;;;;;5021301;28;20166;-79
2023/11/09 05:51:44;;;;;;;125.40;115.22;;;9.90;99.90;;;;;;5039807;28;20162;-79
2023/11/09 05:54:10;;;;;;;149.30;137.95;;;9.90;99.90;;;;;;5039490;28;20667;-80
2023/11/09 05:56:35;;;;;;;131.10;120.50;;;9.80;99.90;;;;;;5039631;28;20208;-80
2023/11/09 05:59:01;;;;;;;111.93;102.17;;;9.80;99.90;;;;;;5038923;28;20227;-79
2023/11/09 06:01:30;;;;;;;119.77;109.67;;;9.80;99.90;;;;;;5038873;28;20595;-79
2023/11/09 06:03:57;;;;;;;160.25;148.40;;;9.80;99.90;;;;;;5021313;28;20444;-79
2023/11/09 06:06:23;;;;;;;145.48;134.55;;;9.80;99.90;;;;;;5038323;28;20571;-79
2023/11/09 06:08:49;;;;;;;168.60;156.38;;;9.80;99.90;;;;;;5023507;28;20204;-79
2023/11/09 06:11:15;;;;;;;155.68;143.82;;;9.70;99.90;;;;;;5043057;28;20300;-79
2023/11/09 06:13:42;;;;;;;170.23;158.40;;;9.80;99.90;;;;;;5040514;28;20662;-79
2023/11/09 06:16:08;;;;;;;182.80;170.50;;;9.70;99.90;;;;;;5040065;28;20400;-80
2023/11/09 06:18:34;;;;;;;200.93;187.37;;;9.70;99.90;;;;;;5039693;28;20220;-80
2023/11/09 06:21:03;;;;;;;185.83;173.33;;;9.70;99.90;;;;;;5039968;28;20443;-80
2023/11/09 06:23:29;;;;;;;222.50;208.25;;;9.70;99.90;;;;;;5040553;28;20425;-80
2023/11/09 06:25:55;;;;;;;186.95;174.00;;;9.70;99.90;;;;;;5023474;28;20281;-80
2023/11/09 06:28:22;;;;;;;234.95;220.45;;;9.70;99.90;;;;;;5040007;28;20189;-79
2023/11/09 06:30:48;;;;;;;214.27;200.32;;;9.70;99.90;;;;;;5041809;28;20170;-79
2023/11/09 06:33:15;;;;;;;224.05;210.45;;;9.70;99.90;;;;;;5041971;28;20190;-79
2023/11/09 06:35:41;;;;;;;253.15;238.02;;;9.70;99.90;;;;;;5022819;28;20173;-79
2023/11/09 06:38:08;;;;;;;239.97;224.97;;;9.70;99.90;;;;;;5040679;28;20169;-79
2023/11/09 06:40:35;;;;;;;245.65;230.80;;;9.70;99.90;;;;;;5041813;28;20452;-80
2023/11/09 06:43:01;;;;;;;257.58;242.20;;;9.70;99.90;;;;;;5042461;28;20186;-79
2023/11/09 06:45:27;;;;;;;218.55;205.13;;;9.70;99.90;;;;;;5042403;28;20181;-80
2023/11/09 06:47:53;;;;;;;223.33;209.40;;;9.60;99.90;;;;;;5044677;28;20623;-80
2023/11/09 06:50:19;;;;;;;216.67;202.77;;;9.60;99.90;;;;;;5044791;28;20177;-80
2023/11/09 06:52:45;;;;;;;193.33;180.87;;;9.70;99.90;;;;;;5027071;28;20170;-80
2023/11/09 06:55:15;;;;;;;205.07;192.18;;;9.60;99.90;;;;;;5043965;28;20604;-80
2023/11/09 06:57:41;;;;;;;203.85;190.75;;;9.70;99.90;;;;;;5026853;28;20224;-80
2023/11/09 07:00:10;;;;;;;223.48;209.45;;;9.70;99.90;;;;;;5044476;28;20223;-80
2023/11/09 07:02:40;;;;;;;196.35;183.02;;;9.70;99.90;;;;;;5044816;28;20172;-80
2023/11/09 07:05:06;;;;;;;205.27;191.82;;;9.70;99.90;;;;;;5044607;28;20189;-80
2023/11/09 07:07:33;;;;;;;217.50;203.50;;;9.80;99.90;;;;;;5043732;28;20212;-80
2023/11/09 07:09:59;;;;;;;195.68;183.10;;;9.70;99.90;;;;;;5043787;28;20162;-80
2023/11/09 07:12:25;;;;;;;177.37;165.17;;;9.70;99.90;;;;;;5025389;28;20208;-80
2023/11/09 07:14:51;;;;;;;202.65;189.07;;;9.80;99.90;;;;;;5041246;28;20189;-80
2023/11/09 07:17:17;;;;;;;213.77;200.10;;;9.80;99.90;;;;;;5022927;28;20173;-80
2023/11/09 07:19:47;;;;;;;183.63;171.38;;;9.80;99.90;;;;;;5041327;28;20187;-80
2023/11/09 07:22:14;;;;;;;195.43;182.13;;;9.80;99.90;;;;;;5022623;28;20197;-80
2023/11/09 07:24:43;;;;;;;172.63;160.68;;;9.80;99.90;;;;;;5040723;28;20249;-80
2023/11/09 07:27:11;;;;;;;176.63;164.48;;;9.90;99.90;;;;;;5041752;28;20169;-80
2023/11/09 07:29:37;;;;;;;170.05;158.30;;;9.90;99.90;;;;;;5024301;28;20166;-80
2023/11/09 07:32:03;;;;;;;165.13;153.60;;;9.90;99.90;;;;;;5024600;28;20673;-80
2023/11/09 07:34:30;;;;;;;186.33;173.70;;;9.90;99.90;;;;;;5043195;28;20181;-80
2023/11/09 07:36:57;;;;;;;162.18;150.65;;;10.00;99.90;;;;;;5043638;28;20415;-80
2023/11/09 07:39:27;;;;;;;162.45;150.98;;;10.00;99.90;;;;;;5043740;28;20162;-80
2023/11/09 07:41:54;;;;;;;163.10;151.60;;;10.00;99.90;;;;;;5049110;28;20249;-81
2023/11/09 07:44:22;;;;;;;203.82;190.52;;;10.00;99.90;;;;;;5047336;28;20201;-80
2023/11/09 07:46:48;;;;;;;150.25;139.18;;;10.00;99.90;;;;;;5047730;28;20230;-81
2023/11/09 07:49:14;;;;;;;163.90;152.45;;;10.00;99.90;;;;;;5030001;28;20260;-80
2023/11/09 07:51:40;;;;;;;158.45;147.20;;;10.00;99.90;;;;;;5047649;28;20169;-81
2023/11/09 07:54:09;;;;;;;149.23;138.30;;;10.10;99.90;;;;;;5029648;28;20190;-81
2023/11/09 07:56:35;;;;;;;150.10;138.77;;;10.10;99.90;;;;;;5049294;28;20424;-81
2023/11/09 07:59:02;;;;;;;142.70;132.05;;;10.10;99.90;;;;;;5052040;28;20165;-81
2023/11/09 08:01:28;;;;;;;135.35;124.68;;;10.10;99.90;;;;;;5034131;28;20201;-81
2023/11/09 08:03:54;;;;;;;125.60;115.47;;;10.20;99.90;;;;;;5051604;28;20239;-81
2023/11/09 08:06:22;;;;;;;147.20;135.77;;;10.20;99.90;;;;;;5051588;28;20401;-81
2023/11/09 08:08:51;;;;;;;161.75;149.95;;;10.20;99.90;;;;;;5052847;28;20439;-81
2023/11/09 08:11:20;;;;;;;137.50;127.07;;;10.20;99.90;;;;;;5052491;28;20174;-81
2023/11/09 08:13:46;;;;;;;136.15;125.68;;;10.30;99.90;;;;;;5033664;28;20190;-81
2023/11/09 08:16:13;;;;;;;131.40;120.97;;;10.30;99.90;;;;;;5052047;28;20219;-81
2023/11/09 08:18:43;;;;;;;140.10;129.02;;;10.30;99.90;;;;;;5052137;28;20166;-81
2023/11/09 08:21:09;;;;;;;129.82;119.68;;;10.40;99.90;;;;;;5052187;28;20257;-81
2023/11/09 08:23:39;;;;;;;129.15;118.97;;;10.40;99.90;;;;;;5051708;28;20686;-81
2023/11/09 08:26:05;;;;;;;123.28;113.28;;;10.40;99.90;;;;;;5035372;28;20158;-81
2023/11/09 08:28:31;;;;;;;153.87;142.33;;;10.40;99.90;;;;;;5050639;28;20169;-81
2023/11/09 08:30:58;;;;;;;161.30;149.50;;;10.50;99.90;;;;;;5050673;28;20419;-81
2023/11/09 08:33:24;;;;;;;141.73;130.95;;;10.50;99.90;;;;;;5050185;28;20239;-81
2023/11/09 08:35:53;;;;;;;168.45;156.43;;;10.50;99.90;;;;;;5050950;28;20197;-81
2023/11/09 08:38:22;;;;;;;140.35;129.73;;;10.50;99.90;;;;;;5050807;28;20161;-81
2023/11/09 08:40:51;;;;;;;150.85;139.70;;;10.50;99.90;;;;;;5051167;28;20319;-81
2023/11/09 08:43:17;;;;;;;124.28;114.20;;;10.50;99.90;;;;;;5050907;28;20220;-81
2023/11/09 08:45:43;;;;;;;131.13;120.30;;;10.50;99.90;;;;;;5050645;28;20162;-81
2023/11/09 08:48:10;;;;;;;93.78;84.90;;;10.60;99.90;;;;;;5047571;28;20409;-80
2023/11/09 08:50:38;;;;;;;86.47;77.88;;;10.70;99.90;;;;;;5026089;28;20237;-79
2023/11/09 08:53:04;;;;;;;97.07;88.10;;;10.70;99.90;;;;;;5042329;28;20181;-80
2023/11/09 08:55:31;;;;;;;93.15;84.03;;;10.70;99.90;;;;;;5023984;28;20563;-80
2023/11/09 08:57:59;;;;;;;83.88;75.38;;;10.70;99.90;;;;;;5041667;28;20643;-80
2023/11/09 09:00:28;;;;;;;100.63;91.53;;;10.70;99.90;;;;;;5042152;28;20199;-80
2023/11/09 09:02:54;;;;;;;101.05;91.70;;;10.60;99.90;;;;;;5042892;28;20186;-80
2023/11/09 09:05:26;;;;;;;86.28;77.38;;;10.50;99.90;;;;;;5043326;28;20187;-80
2023/11/09 09:07:54;;;;;;;90.53;81.40;;;10.50;99.90;;;;;;5043174;28;20150;-80
2023/11/09 09:10:21;;;;;;;101.70;92.38;;;10.50;99.90;;;;;;5044242;28;20226;-80
2023/11/09 09:12:48;;;;;;;86.43;77.70;;;10.50;99.90;;;;;;5046302;28;20162;-81
2023/11/09 09:15:16;;;;;;;106.70;95.55;;;10.50;99.90;;;;;;5046938;28;20173;-81
2023/11/09 09:17:46;;;;;;;97.68;88.43;;;10.50;99.90;;;;;;5045848;28;20162;-81
2023/11/09 09:20:15;;;;;;;96.60;87.28;;;10.50;99.90;;;;;;5045985;28;20177;-81
2023/11/09 09:22:43;;;;;;;91.95;82.97;;;10.50;99.90;;;;;;5029459;28;20166;-80
2023/11/09 09:25:12;;;;;;;91.57;82.57;;;10.50;99.90;;;;;;5047609;28;20161;-81
2023/11/09 09:27:46;;;;;;;95.75;86.30;;;10.50;99.90;;;;;;5047511;28;20547;-81
2023/11/09 09:30:13;;;;;;;89.78;80.60;;;10.60;99.90;;;;;;5029645;28;20173;-81
2023/11/09 09:32:43;;;;;;;81.15;72.32;;;10.60;99.90;;;;;;5047271;28;20173;-81
2023/11/09 09:35:12;;;;;;;88.43;79.28;;;10.50;99.90;;;;;;5048285;28;20193;-81
2023/11/09 09:37:45;;;;;;;93.70;84.03;;;10.50;99.90;;;;;;5029746;28;20173;-81
2023/11/09 09:40:19;;;;;;;92.40;82.68;;;10.60;99.90;;;;;;5046768;28;20574;-81
2023/11/09 09:42:46;;;;;;;96.43;87.13;;;10.60;99.90;;;;;;5047495;28;20154;-80
2023/11/09 09:45:33;;;;;;;91.93;82.82;;;10.70;99.90;;;;;;5047683;28;20173;-81
2023/11/09 09:48:01;;;;;;;105.75;95.55;;;10.70;99.90;;;;;;5047203;28;20152;-81
2023/11/09 09:50:39;;;;;;;92.13;82.72;;;10.80;99.90;;;;;;5029835;28;20189;-81
2023/11/09 09:53:09;;;;;;;100.50;91.28;;;10.80;99.90;;;;;;5048303;28;20268;-81
2023/11/09 09:55:36;;;;;;;95.90;86.25;;;10.90;99.90;;;;;;5048263;28;20154;-81
2023/11/09 09:58:05;;;;;;;95.50;85.65;;;11.00;99.90;;;;;;5047665;28;20166;-81
2023/11/09 10:00:31;;;;;;;90.90;82.15;;;10.90;99.90;;;;;;5029657;28;20212;-81
2023/11/09 10:02:59;;;;;;;90.00;80.90;;;10.90;99.90;;;;;;5027915;28;20190;-81
2023/11/09 10:05:28;;;;;;;94.57;85.13;;;10.90;99.90;;;;;;5029402;28;20200;-81
2023/11/09 10:07:59;;;;;;;82.00;69.28;;;11.00;99.90;;;;;;5047527;28;20187;-81
2023/11/09 10:10:32;;;;;;;93.93;83.93;;;10.90;99.90;;;;;;5046649;28;20166;-81
2023/11/09 10:13:01;;;;;;;93.20;84.20;;;11.00;99.90;;;;;;5028325;28;20189;-81
2023/11/09 10:15:29;;;;;;;92.85;83.85;;;11.00;99.90;;;;;;5046923;28;20166;-81
2023/11/09 10:17:55;;;;;;;92.55;83.40;;;11.10;99.90;;;;;;5046929;28;20225;-81
2023/11/09 10:20:21;;;;;;;93.25;83.68;;;11.20;99.90;;;;;;5045506;28;20224;-81
2023/11/09 10:22:50;;;;;;;89.43;80.60;;;11.10;99.90;;;;;;5047534;28;20211;-82
2023/11/09 10:25:17;;;;;;;92.32;82.88;;;11.10;99.90;;;;;;5047176;28;20166;-80
2023/11/09 10:27:49;;;;;;;95.07;85.85;;;11.00;99.90;;;;;;5047887;28;20170;-80
2023/11/09 10:30:16;;;;;;;96.22;86.65;;;11.10;99.90;;;;;;5029606;28;20166;-81
2023/11/09 10:32:46;;;;;;;92.60;83.13;;;11.00;99.90;;;;;;5030431;28;20170;-80
2023/11/09 10:35:13;;;;;;;97.20;87.78;;;10.90;99.90;;;;;;5048797;28;20154;-80
2023/11/09 10:37:41;;;;;;;103.45;93.05;;;10.80;99.90;;;;;;5047561;28;20158;-80
2023/11/09 10:40:12;;;;;;;175.40;162.57;;;10.80;99.90;;;;;;5044576;28;20176;-80
2023/11/09 10:42:39;;;;;;;98.35;88.90;;;10.90;99.90;;;;;;5025753;28;20177;-80
2023/11/09 10:45:10;;;;;;;105.07;95.65;;;10.90;99.90;;;;;;5047146;28;20186;-80
2023/11/09 10:47:40;;;;;;;95.50;86.28;;;10.90;99.90;;;;;;5046668;28;20153;-80
2023/11/09 10:50:13;;;;;;;83.90;75.05;;;10.90;99.90;;;;;;5028856;28;20150;-80
2023/11/09 10:52:43;;;;;;;87.47;78.85;;;10.90;99.90;;;;;;5029525;28;20545;-82
2023/11/09 10:55:16;;;;;;;95.65;86.55;;;11.00;99.90;;;;;;5046800;28;20181;-81
2023/11/09 10:57:43;;;;;;;96.43;87.18;;;10.90;99.90;;;;;;5028859;28;20661;-80
2023/11/09 11:00:25;;;;;;;85.78;74.80;;;10.90;99.90;;;;;;5048073;28;20158;-80
2023/11/09 11:02:58;;;;;;;84.78;76.10;;;10.90;99.90;;;;;;5047511;28;20177;-80
2023/11/09 11:05:27;;;;;;;86.32;77.43;;;11.00;99.90;;;;;;5046697;28;20204;-80
2023/11/09 11:07:59;;;;;;;91.03;81.40;;;11.10;99.90;;;;;;5045664;28;20161;-80
2023/11/09 11:10:26;;;;;;;91.53;82.15;;;11.00;99.90;;;;;;5045726;28;20146;-80
2023/11/09 11:12:53;;;;;;;83.55;74.82;;;11.00;99.90;;;;;;5046275;28;20166;-80
2023/11/09 11:15:33;;;;;;;85.78;76.95;;;11.00;99.90;;;;;;5027879;28;20193;-80
2023/11/09 11:18:32;;;;;;;83.68;72.68;;;11.10;99.90;;;;;;5047038;28;20189;-80
2023/11/09 11:21:10;;;;;;;84.57;76.07;;;11.30;99.90;;;;;;5046206;28;20178;-80
2023/11/09 11:23:51;;;;;;;94.18;84.28;;;11.30;99.90;;;;;;5046668;28;20181;-80
2023/11/09 11:26:18;;;;;;;86.90;77.78;;;11.20;99.90;;;;;;5029448;28;20161;-80
2023/11/09 11:28:44;;;;;;;72.38;64.03;;;11.10;99.90;;;;;;5047584;28;20170;-80
2023/11/09 11:31:13;;;;;;;73.20;61.13;;;11.20;99.90;;;;;;5029263;28;20186;-80
2023/11/09 11:33:40;;;;;;;77.78;69.57;;;11.20;99.90;;;;;;5047506;28;20456;-80
2023/11/09 11:36:07;;;;;;;74.63;64.22;;;11.10;99.90;;;;;;5029700;28;20173;-80
2023/11/09 11:38:35;;;;;;;78.20;69.30;;;11.00;99.90;;;;;;5048160;28;20177;-80
2023/11/09 11:41:16;;;;;;;72.82;62.95;;;11.00;99.90;;;;;;5030639;28;20189;-80
2023/11/09 11:43:45;;;;;;;72.07;54.65;;;11.00;99.90;;;;;;5030256;28;20201;-80
2023/11/09 11:46:12;;;;;;;75.28;60.85;;;11.00;99.90;;;;;;5030341;28;20170;-80
2023/11/09 11:48:44;;;;;;;74.43;63.63;;;10.90;99.90;;;;;;5048406;28;20170;-80
2023/11/09 11:51:10;;;;;;;73.45;62.90;;;11.00;99.90;;;;;;5048567;28;20181;-80
2023/11/09 11:53:39;;;;;;;73.70;60.90;;;11.00;99.90;;;;;;5048101;28;20185;-80
2023/11/09 11:56:10;;;;;;;73.90;62.00;;;11.00;99.90;;;;;;5048936;28;20166;-80
2023/11/09 11:58:57;;;;;;;75.30;61.40;;;11.00;99.90;;;;;;5048920;28;20612;-80
2023/11/09 12:01:28;;;;;;;74.45;58.42;;;11.00;99.90;;;;;;5031305;28;20194;-80
2023/11/09 12:03:57;;;;;;;79.35;61.53;;;11.00;99.90;;;;;;5049869;28;20181;-80
2023/11/09 12:06:28;;;;;;;76.57;67.97;;;11.00;99.90;;;;;;5049163;28;20176;-80
2023/11/09 12:08:58;;;;;;;73.45;59.50;;;11.00;99.90;;;;;;5050035;28;20162;-80
2023/11/09 12:11:26;;;;;;;74.13;62.33;;;11.10;99.90;;;;;;5048848;28;20174;-80
2023/11/09 12:13:56;;;;;;;72.18;61.17;;;11.30;99.90;;;;;;5048989;28;20274;-80
2023/11/09 12:16:26;;;;;;;71.30;55.00;;;11.30;99.90;;;;;;5049823;28;20166;-80
2023/11/09 12:18:56;;;;;;;71.63;62.13;;;11.30;99.90;;;;;;5050926;28;20189;-80
2023/11/09 12:21:23;;;;;;;79.75;63.33;;;11.30;99.90;;;;;;5049629;28;20190;-80
2023/11/09 12:23:53;;;;;;;70.55;53.85;;;11.40;99.90;;;;;;5049473;28;20190;-80
2023/11/09 12:26:20;;;;;;;74.13;62.67;;;11.50;99.90;;;;;;5031076;28;20162;-80